sensor_id;sensor_type;location;lat;lon;timestamp;pressure;altitude;pressure_sealevel;temperature;humidity
81913;BME280;71377;50.698;7.164;2023-08-06T00:00:26;99886.81;;;16.66;83.10
81913;BME280;71377;50.698;7.164;2023-08-06T00:02:53;99887.47;;;16.57;82.57
81913;BME280;71377;50.698;7.164;2023-08-06T00:05:20;99881.88;;;16.49;82.12
81913;BME280;71377;50.698;7.164;2023-08-06T00:07:49;99882.88;;;16.35;82.16
81913;BME280;71377;50.698;7.164;2023-08-06T00:10:16;99885.41;;;16.24;81.42
81913;BME280;71377;50.698;7.164;2023-08-06T00:12:43;99885.41;;;16.24;81.13
81913;BME280;71377;50.698;7.164;2023-08-06T00:15:11;99896.78;;;16.26;81.10
81913;BME280;71377;50.698;7.164;2023-08-06T00:17:39;99903.56;;;16.17;80.72
81913;BME280;71377;50.698;7.164;2023-08-06T00:20:07;99899.78;;;16.08;80.29
81913;BME280;71377;50.698;7.164;2023-08-06T00:22:34;99904.13;;;16.09;80.46
81913;BME280;71377;50.698;7.164;2023-08-06T00:25:02;99901.34;;;16.11;80.01
81913;BME280;71377;50.698;7.164;2023-08-06T00:27:28;99905.59;;;16.26;80.70
81913;BME280;71377;50.698;7.164;2023-08-06T00:29:55;99899.84;;;16.20;80.25
81913;BME280;71377;50.698;7.164;2023-08-06T00:32:21;99896.03;;;16.24;80.57
81913;BME280;71377;50.698;7.164;2023-08-06T00:34:48;99895.41;;;16.20;80.98
81913;BME280;71377;50.698;7.164;2023-08-06T00:37:18;99897.75;;;16.25;80.60
81913;BME280;71377;50.698;7.164;2023-08-06T00:39:45;99899.22;;;16.29;80.55
81913;BME280;71377;50.698;7.164;2023-08-06T00:42:12;99892.63;;;16.22;80.60
81913;BME280;71377;50.698;7.164;2023-08-06T00:44:38;99885.41;;;16.24;80.60
81913;BME280;71377;50.698;7.164;2023-08-06T00:47:06;99889.03;;;16.35;80.50
81913;BME280;71377;50.698;7.164;2023-08-06T00:49:35;99887.75;;;16.28;80.77
81913;BME280;71377;50.698;7.164;2023-08-06T00:52:04;99883.31;;;16.29;80.76
81913;BME280;71377;50.698;7.164;2023-08-06T00:54:31;99874.81;;;16.24;80.41
81913;BME280;71377;50.698;7.164;2023-08-06T00:56:59;99878.22;;;16.26;80.16
81913;BME280;71377;50.698;7.164;2023-08-06T00:59:28;99886.84;;;16.53;80.77
81913;BME280;71377;50.698;7.164;2023-08-06T01:01:55;99887.94;;;16.38;80.63
81913;BME280;71377;50.698;7.164;2023-08-06T01:04:22;99880.13;;;16.24;80.18
81913;BME280;71377;50.698;7.164;2023-08-06T01:15:25;99880.53;;;16.30;80.91
81913;BME280;71377;50.698;7.164;2023-08-06T01:17:50;99877.88;;;16.43;81.24
81913;BME280;71377;50.698;7.164;2023-08-06T01:20:16;99866.22;;;16.33;81.08
81913;BME280;71377;50.698;7.164;2023-08-06T01:22:42;99860.19;;;16.31;80.99
81913;BME280;71377;50.698;7.164;2023-08-06T01:25:09;99866.75;;;16.38;81.49
81913;BME280;71377;50.698;7.164;2023-08-06T01:27:44;99853.84;;;16.33;81.52
81913;BME280;71377;50.698;7.164;2023-08-06T01:30:16;99856.13;;;16.38;81.46
81913;BME280;71377;50.698;7.164;2023-08-06T01:32:46;99855.34;;;16.25;81.29
81913;BME280;71377;50.698;7.164;2023-08-06T01:35:16;99855.28;;;16.37;81.28
81913;BME280;71377;50.698;7.164;2023-08-06T01:37:43;99853.91;;;16.32;81.00
81913;BME280;71377;50.698;7.164;2023-08-06T01:40:11;99852.47;;;16.28;81.11
81913;BME280;71377;50.698;7.164;2023-08-06T01:42:40;99848.13;;;16.27;80.96
81913;BME280;71377;50.698;7.164;2023-08-06T01:45:07;99845.47;;;16.27;81.05
81913;BME280;71377;50.698;7.164;2023-08-06T01:47:35;99841.78;;;16.17;80.78
81913;BME280;71377;50.698;7.164;2023-08-06T01:50:02;99846.03;;;16.06;80.36
81913;BME280;71377;50.698;7.164;2023-08-06T01:52:29;99840.53;;;15.97;80.09
81913;BME280;71377;50.698;7.164;2023-08-06T01:54:55;99834.84;;;15.90;79.89
81913;BME280;71377;50.698;7.164;2023-08-06T01:57:22;99833.97;;;15.90;80.50
81913;BME280;71377;50.698;7.164;2023-08-06T01:59:48;99829.44;;;15.92;80.77
81913;BME280;71377;50.698;7.164;2023-08-06T02:02:15;99825.72;;;15.94;80.90
81913;BME280;71377;50.698;7.164;2023-08-06T02:04:41;99817.69;;;15.83;80.64
81913;BME280;71377;50.698;7.164;2023-08-06T02:07:08;99818.72;;;15.80;80.52
81913;BME280;71377;50.698;7.164;2023-08-06T02:09:34;99821.47;;;15.79;80.74
81913;BME280;71377;50.698;7.164;2023-08-06T02:12:02;99822.53;;;15.89;80.92
81913;BME280;71377;50.698;7.164;2023-08-06T02:14:29;99818.22;;;15.75;80.29
81913;BME280;71377;50.698;7.164;2023-08-06T02:16:55;99814.91;;;15.72;80.05
81913;BME280;71377;50.698;7.164;2023-08-06T02:19:22;99807.31;;;15.67;80.10
81913;BME280;71377;50.698;7.164;2023-08-06T02:21:48;99810.38;;;15.61;80.30
81913;BME280;71377;50.698;7.164;2023-08-06T02:24:15;99819.94;;;15.64;80.34
81913;BME280;71377;50.698;7.164;2023-08-06T02:26:41;99814.72;;;15.62;80.01
81913;BME280;71377;50.698;7.164;2023-08-06T02:29:08;99812.72;;;15.66;79.81
81913;BME280;71377;50.698;7.164;2023-08-06T02:31:34;99808.16;;;15.68;80.21
81913;BME280;71377;50.698;7.164;2023-08-06T02:34:01;99817.06;;;15.67;80.09
81913;BME280;71377;50.698;7.164;2023-08-06T02:36:27;99804.44;;;15.70;80.17
81913;BME280;71377;50.698;7.164;2023-08-06T02:38:55;99804.56;;;15.69;80.05
81913;BME280;71377;50.698;7.164;2023-08-06T02:41:22;99803.25;;;15.87;80.42
81913;BME280;71377;50.698;7.164;2023-08-06T02:43:48;99798.38;;;15.81;80.49
81913;BME280;71377;50.698;7.164;2023-08-06T02:46:14;99807.28;;;15.80;80.43
81913;BME280;71377;50.698;7.164;2023-08-06T02:48:41;99788.84;;;15.91;80.41
81913;BME280;71377;50.698;7.164;2023-08-06T02:51:07;99791.59;;;15.90;80.51
81913;BME280;71377;50.698;7.164;2023-08-06T02:53:34;99789.88;;;16.01;80.55
81913;BME280;71377;50.698;7.164;2023-08-06T02:56:00;99789.88;;;16.01;80.78
81913;BME280;71377;50.698;7.164;2023-08-06T02:58:27;99790.75;;;16.02;81.32
81913;BME280;71377;50.698;7.164;2023-08-06T03:03:27;99779.47;;;16.11;81.44
81913;BME280;71377;50.698;7.164;2023-08-06T03:05:54;99776.13;;;15.96;80.94
81913;BME280;71377;50.698;7.164;2023-08-06T03:08:20;99774.44;;;15.95;81.77
81913;BME280;71377;50.698;7.164;2023-08-06T03:10:50;99773.59;;;15.95;81.54
81913;BME280;71377;50.698;7.164;2023-08-06T03:13:17;99768.28;;;15.95;81.43
81913;BME280;71377;50.698;7.164;2023-08-06T03:15:55;99767.50;;;16.05;81.53
81913;BME280;71377;50.698;7.164;2023-08-06T03:18:22;99760.44;;;15.93;81.52
81913;BME280;71377;50.698;7.164;2023-08-06T03:20:49;99760.44;;;15.93;81.42
81913;BME280;71377;50.698;7.164;2023-08-06T03:23:15;99759.91;;;16.01;81.54
81913;BME280;71377;50.698;7.164;2023-08-06T03:25:42;99756.84;;;15.94;81.44
81913;BME280;71377;50.698;7.164;2023-08-06T03:28:08;99751.06;;;16.13;81.64
81913;BME280;71377;50.698;7.164;2023-08-06T03:30:35;99751.63;;;16.05;81.60
81913;BME280;71377;50.698;7.164;2023-08-06T03:33:01;99743.00;;;16.15;81.80
81913;BME280;71377;50.698;7.164;2023-08-06T03:35:28;99754.31;;;15.93;81.46
81913;BME280;71377;50.698;7.164;2023-08-06T03:37:55;99750.47;;;15.97;81.24
81913;BME280;71377;50.698;7.164;2023-08-06T03:40:21;99750.09;;;15.90;81.12
81913;BME280;71377;50.698;7.164;2023-08-06T03:42:48;99751.00;;;16.02;81.39
81913;BME280;71377;50.698;7.164;2023-08-06T03:45:14;99745.28;;;15.95;81.24
81913;BME280;71377;50.698;7.164;2023-08-06T03:47:40;99743.38;;;15.97;81.09
81913;BME280;71377;50.698;7.164;2023-08-06T03:50:07;99742.69;;;15.82;80.42
81913;BME280;71377;50.698;7.164;2023-08-06T03:52:34;99733.00;;;15.94;80.86
81913;BME280;71377;50.698;7.164;2023-08-06T03:55:00;99741.19;;;15.91;80.63
81913;BME280;71377;50.698;7.164;2023-08-06T03:57:26;99730.41;;;15.81;80.38
81913;BME280;71377;50.698;7.164;2023-08-06T03:59:53;99739.41;;;15.79;80.01
81913;BME280;71377;50.698;7.164;2023-08-06T04:02:21;99731.63;;;16.01;80.93
81913;BME280;71377;50.698;7.164;2023-08-06T04:04:47;99738.19;;;15.96;81.06
81913;BME280;71377;50.698;7.164;2023-08-06T04:07:14;99735.88;;;15.91;80.95
81913;BME280;71377;50.698;7.164;2023-08-06T04:09:59;99737.03;;;16.00;81.34
81913;BME280;71377;50.698;7.164;2023-08-06T04:12:27;99737.41;;;15.82;80.77
81913;BME280;71377;50.698;7.164;2023-08-06T04:14:54;99742.22;;;15.89;80.85
81913;BME280;71377;50.698;7.164;2023-08-06T04:17:21;99739.69;;;16.00;80.94
81913;BME280;71377;50.698;7.164;2023-08-06T04:19:50;99740.94;;;15.94;80.91
81913;BME280;71377;50.698;7.164;2023-08-06T04:22:18;99735.44;;;15.97;80.55
81913;BME280;71377;50.698;7.164;2023-08-06T04:24:44;99735.03;;;15.91;80.42
81913;BME280;71377;50.698;7.164;2023-08-06T04:27:12;99735.53;;;15.96;80.77
81913;BME280;71377;50.698;7.164;2023-08-06T04:29:38;99734.81;;;15.81;79.83
81913;BME280;71377;50.698;7.164;2023-08-06T04:32:06;99740.34;;;15.78;79.64
81913;BME280;71377;50.698;7.164;2023-08-06T04:34:36;99735.59;;;15.83;80.01
81913;BME280;71377;50.698;7.164;2023-08-06T04:37:03;99734.28;;;15.89;80.22
81913;BME280;71377;50.698;7.164;2023-08-06T04:39:30;99734.22;;;15.77;80.01
81913;BME280;71377;50.698;7.164;2023-08-06T04:41:56;99735.28;;;15.75;79.63
81913;BME280;71377;50.698;7.164;2023-08-06T04:44:26;99733.47;;;15.75;79.66
81913;BME280;71377;50.698;7.164;2023-08-06T04:46:52;99737.63;;;15.67;79.46
81913;BME280;71377;50.698;7.164;2023-08-06T04:49:22;99741.97;;;15.68;78.94
81913;BME280;71377;50.698;7.164;2023-08-06T04:51:49;99740.16;;;15.68;78.93
81913;BME280;71377;50.698;7.164;2023-08-06T04:54:15;99740.16;;;15.68;78.76
81913;BME280;71377;50.698;7.164;2023-08-06T04:56:42;99737.41;;;15.70;78.62
81913;BME280;71377;50.698;7.164;2023-08-06T04:59:09;99737.63;;;15.67;77.42
81913;BME280;71377;50.698;7.164;2023-08-06T05:01:35;99744.00;;;15.64;77.27
81913;BME280;71377;50.698;7.164;2023-08-06T05:04:02;99742.59;;;15.59;76.60
81913;BME280;71377;50.698;7.164;2023-08-06T05:06:28;99746.31;;;15.69;77.75
81913;BME280;71377;50.698;7.164;2023-08-06T05:08:54;99750.63;;;15.70;76.59
81913;BME280;71377;50.698;7.164;2023-08-06T05:11:21;99751.78;;;15.78;76.93
81913;BME280;71377;50.698;7.164;2023-08-06T05:13:47;99748.00;;;15.57;77.12
81913;BME280;71377;50.698;7.164;2023-08-06T05:16:14;99747.69;;;15.62;77.08
81913;BME280;71377;50.698;7.164;2023-08-06T05:18:41;99741.97;;;15.68;76.95
81913;BME280;71377;50.698;7.164;2023-08-06T05:21:08;99745.88;;;15.62;77.24
81913;BME280;71377;50.698;7.164;2023-08-06T05:23:34;99750.13;;;15.65;76.80
81913;BME280;71377;50.698;7.164;2023-08-06T05:26:00;99745.03;;;15.62;76.92
81913;BME280;71377;50.698;7.164;2023-08-06T05:28:27;99748.72;;;15.72;76.81
81913;BME280;71377;50.698;7.164;2023-08-06T05:30:53;99751.38;;;15.72;77.13
81913;BME280;71377;50.698;7.164;2023-08-06T05:33:19;99750.53;;;15.84;77.88
81913;BME280;71377;50.698;7.164;2023-08-06T05:35:46;99752.88;;;15.76;77.06
81913;BME280;71377;50.698;7.164;2023-08-06T05:38:12;99754.44;;;15.91;77.23
81913;BME280;71377;50.698;7.164;2023-08-06T05:40:39;99760.81;;;15.76;77.25
81913;BME280;71377;50.698;7.164;2023-08-06T05:43:05;99759.91;;;15.88;77.45
81913;BME280;71377;50.698;7.164;2023-08-06T05:45:32;99759.81;;;15.90;77.21
81913;BME280;71377;50.698;7.164;2023-08-06T05:47:58;99764.13;;;16.03;77.58
81913;BME280;71377;50.698;7.164;2023-08-06T05:50:25;99767.13;;;15.99;77.95
81913;BME280;71377;50.698;7.164;2023-08-06T05:52:51;99765.09;;;16.02;77.45
81913;BME280;71377;50.698;7.164;2023-08-06T05:55:20;99767.31;;;15.96;76.77
81913;BME280;71377;50.698;7.164;2023-08-06T05:57:46;99765.09;;;16.02;77.37
81913;BME280;71377;50.698;7.164;2023-08-06T06:00:13;99770.09;;;15.94;77.33
81913;BME280;71377;50.698;7.164;2023-08-06T06:02:39;99768.69;;;16.01;77.25
81913;BME280;71377;50.698;7.164;2023-08-06T06:05:06;99771.13;;;16.04;76.74
81913;BME280;71377;50.698;7.164;2023-08-06T06:07:32;99771.00;;;16.06;77.80
81913;BME280;71377;50.698;7.164;2023-08-06T06:09:59;99772.06;;;16.03;77.77
81913;BME280;71377;50.698;7.164;2023-08-06T06:12:25;99775.25;;;16.08;77.48
81913;BME280;71377;50.698;7.164;2023-08-06T06:14:53;99782.75;;;16.15;78.38
81913;BME280;71377;50.698;7.164;2023-08-06T06:17:19;99786.16;;;16.17;78.46
81913;BME280;71377;50.698;7.164;2023-08-06T06:19:46;99791.88;;;16.10;77.23
81913;BME280;71377;50.698;7.164;2023-08-06T06:22:13;99794.53;;;16.10;77.50
81913;BME280;71377;50.698;7.164;2023-08-06T06:24:40;99789.47;;;16.07;76.86
81913;BME280;71377;50.698;7.164;2023-08-06T06:27:06;99796.94;;;16.14;78.75
81913;BME280;71377;50.698;7.164;2023-08-06T06:29:33;99795.25;;;16.13;78.09
81913;BME280;71377;50.698;7.164;2023-08-06T06:31:59;99800.53;;;16.25;78.62
81913;BME280;71377;50.698;7.164;2023-08-06T06:34:26;99802.34;;;16.25;78.51
81913;BME280;71377;50.698;7.164;2023-08-06T06:36:52;99806.38;;;16.18;78.45
81913;BME280;71377;50.698;7.164;2023-08-06T06:39:20;99814.34;;;16.18;78.23
81913;BME280;71377;50.698;7.164;2023-08-06T06:41:47;99809.09;;;16.29;77.61
81913;BME280;71377;50.698;7.164;2023-08-06T06:44:14;99812.28;;;16.34;78.30
81913;BME280;71377;50.698;7.164;2023-08-06T06:46:41;99813.78;;;16.25;78.71
81913;BME280;71377;50.698;7.164;2023-08-06T06:49:07;99814.00;;;16.22;78.41
81913;BME280;71377;50.698;7.164;2023-08-06T06:51:34;99812.28;;;16.21;78.26
81913;BME280;71377;50.698;7.164;2023-08-06T06:54:00;99812.59;;;16.29;78.27
81913;BME280;71377;50.698;7.164;2023-08-06T06:56:27;99822.66;;;16.37;78.04
81913;BME280;71377;50.698;7.164;2023-08-06T06:58:53;99819.88;;;16.38;78.53
81913;BME280;71377;50.698;7.164;2023-08-06T07:01:20;99813.97;;;16.35;79.19
81913;BME280;71377;50.698;7.164;2023-08-06T07:03:46;99819.56;;;16.43;77.90
81913;BME280;71377;50.698;7.164;2023-08-06T07:06:13;99810.81;;;16.54;78.47
81913;BME280;71377;50.698;7.164;2023-08-06T07:08:39;99809.19;;;16.88;79.45
81913;BME280;71377;50.698;7.164;2023-08-06T07:11:06;99818.81;;;16.65;79.30
81913;BME280;71377;50.698;7.164;2023-08-06T07:13:34;99815.31;;;16.64;79.12
81913;BME280;71377;50.698;7.164;2023-08-06T07:16:00;99812.81;;;16.87;79.07
81913;BME280;71377;50.698;7.164;2023-08-06T07:18:27;99813.31;;;16.92;79.07
81913;BME280;71377;50.698;7.164;2023-08-06T07:20:54;99821.09;;;17.06;78.32
81913;BME280;71377;50.698;7.164;2023-08-06T07:23:23;99815.78;;;17.06;78.64
81913;BME280;71377;50.698;7.164;2023-08-06T07:25:50;99819.16;;;17.08;78.84
81913;BME280;71377;50.698;7.164;2023-08-06T07:28:17;99821.69;;;17.10;78.82
81913;BME280;71377;50.698;7.164;2023-08-06T07:30:44;99820.78;;;17.33;78.32
81913;BME280;71377;50.698;7.164;2023-08-06T07:33:11;99822.94;;;17.28;78.25
81913;BME280;71377;50.698;7.164;2023-08-06T07:35:38;99827.22;;;17.42;79.43
81913;BME280;71377;50.698;7.164;2023-08-06T07:38:04;99835.78;;;17.45;78.80
81913;BME280;71377;50.698;7.164;2023-08-06T07:40:31;99834.72;;;17.59;79.19
81913;BME280;71377;50.698;7.164;2023-08-06T07:42:57;99834.59;;;17.49;79.78
81913;BME280;71377;50.698;7.164;2023-08-06T07:45:24;99830.31;;;17.82;79.63
81913;BME280;71377;50.698;7.164;2023-08-06T07:47:50;99825.50;;;17.98;79.98
81913;BME280;71377;50.698;7.164;2023-08-06T07:50:17;99832.25;;;17.91;80.20
81913;BME280;71377;50.698;7.164;2023-08-06T07:52:44;99830.78;;;17.76;79.54
81913;BME280;71377;50.698;7.164;2023-08-06T07:55:10;99832.84;;;17.72;78.78
81913;BME280;71377;50.698;7.164;2023-08-06T07:57:37;99838.63;;;17.77;79.49
81913;BME280;71377;50.698;7.164;2023-08-06T08:00:05;99841.75;;;17.71;79.39
81913;BME280;71377;50.698;7.164;2023-08-06T08:02:31;99837.56;;;17.91;80.43
81913;BME280;71377;50.698;7.164;2023-08-06T08:04:58;99839.34;;;18.35;80.74
81913;BME280;71377;50.698;7.164;2023-08-06T08:07:24;99831.63;;;18.21;80.89
81913;BME280;71377;50.698;7.164;2023-08-06T08:09:51;99833.44;;;18.21;81.09
81913;BME280;71377;50.698;7.164;2023-08-06T08:12:17;99832.59;;;18.09;81.92
81913;BME280;71377;50.698;7.164;2023-08-06T08:14:44;99840.09;;;18.04;82.03
81913;BME280;71377;50.698;7.164;2023-08-06T08:17:11;99835.13;;;18.11;82.35
81913;BME280;71377;50.698;7.164;2023-08-06T08:19:40;99836.19;;;18.30;82.37
81913;BME280;71377;50.698;7.164;2023-08-06T08:22:07;99834.41;;;17.97;82.98
81913;BME280;71377;50.698;7.164;2023-08-06T08:24:33;99836.09;;;17.87;83.09
81913;BME280;71377;50.698;7.164;2023-08-06T08:27:00;99837.53;;;17.80;83.36
81913;BME280;71377;50.698;7.164;2023-08-06T08:29:26;99839.31;;;17.68;83.33
81913;BME280;71377;50.698;7.164;2023-08-06T08:31:52;99842.88;;;17.91;83.32
81913;BME280;71377;50.698;7.164;2023-08-06T08:34:19;99840.56;;;17.75;83.28
81913;BME280;71377;50.698;7.164;2023-08-06T08:36:46;99842.44;;;17.62;83.32
81913;BME280;71377;50.698;7.164;2023-08-06T08:39:13;99849.25;;;17.89;83.26
81913;BME280;71377;50.698;7.164;2023-08-06T08:41:40;99846.72;;;17.76;83.38
81913;BME280;71377;50.698;7.164;2023-08-06T08:44:09;99846.25;;;17.82;83.32
81913;BME280;71377;50.698;7.164;2023-08-06T08:46:38;99846.72;;;17.76;83.27
81913;BME280;71377;50.698;7.164;2023-08-06T08:49:06;99835.94;;;17.55;83.57
81913;BME280;71377;50.698;7.164;2023-08-06T08:51:33;99850.78;;;17.69;83.49
81913;BME280;71377;50.698;7.164;2023-08-06T08:54:04;99856.66;;;17.39;83.43
81913;BME280;71377;50.698;7.164;2023-08-06T08:56:31;99861.31;;;17.24;83.37
81913;BME280;71377;50.698;7.164;2023-08-06T08:58:58;99856.50;;;16.94;82.87
81913;BME280;71377;50.698;7.164;2023-08-06T09:01:26;99867.88;;;16.83;81.45
81913;BME280;71377;50.698;7.164;2023-08-06T09:03:54;99876.63;;;16.73;80.87
81913;BME280;71377;50.698;7.164;2023-08-06T09:06:23;99869.28;;;17.00;81.84
81913;BME280;71377;50.698;7.164;2023-08-06T09:09:01;99874.16;;;17.06;81.61
81913;BME280;71377;50.698;7.164;2023-08-06T09:11:33;99879.97;;;16.87;81.34
81913;BME280;71377;50.698;7.164;2023-08-06T09:14:06;99887.75;;;16.65;81.34
81913;BME280;71377;50.698;7.164;2023-08-06T09:16:37;99880.41;;;16.81;80.78
81913;BME280;71377;50.698;7.164;2023-08-06T09:19:11;99887.25;;;16.73;80.00
81913;BME280;71377;50.698;7.164;2023-08-06T09:21:42;99884.59;;;16.73;79.52
81913;BME280;71377;50.698;7.164;2023-08-06T09:24:10;99882.06;;;16.95;79.94
81913;BME280;71377;50.698;7.164;2023-08-06T09:26:41;99889.28;;;16.93;79.11
81913;BME280;71377;50.698;7.164;2023-08-06T09:29:09;99883.97;;;16.93;80.12
81913;BME280;71377;50.698;7.164;2023-08-06T09:31:44;99883.31;;;16.78;79.11
81913;BME280;71377;50.698;7.164;2023-08-06T09:34:19;99890.78;;;16.84;79.10
81913;BME280;71377;50.698;7.164;2023-08-06T09:36:47;99897.41;;;16.79;79.35
81913;BME280;71377;50.698;7.164;2023-08-06T09:39:15;99902.00;;;16.77;79.67
81913;BME280;71377;50.698;7.164;2023-08-06T09:41:42;99899.03;;;16.69;78.27
81913;BME280;71377;50.698;7.164;2023-08-06T09:44:20;99914.63;;;16.60;78.85
81913;BME280;71377;50.698;7.164;2023-08-06T09:46:55;99911.44;;;16.55;78.36
81913;BME280;71377;50.698;7.164;2023-08-06T09:49:25;99922.47;;;16.49;78.13
81913;BME280;71377;50.698;7.164;2023-08-06T09:51:52;99930.16;;;16.16;79.32
81913;BME280;71377;50.698;7.164;2023-08-06T09:54:23;99920.63;;;16.13;79.19
81913;BME280;71377;50.698;7.164;2023-08-06T09:56:54;99931.53;;;15.96;79.67
81913;BME280;71377;50.698;7.164;2023-08-06T09:59:22;99938.44;;;15.98;79.81
81913;BME280;71377;50.698;7.164;2023-08-06T10:01:49;99945.78;;;16.07;79.44
81913;BME280;71377;50.698;7.164;2023-08-06T10:04:16;99943.13;;;16.07;80.74
81913;BME280;71377;50.698;7.164;2023-08-06T10:06:48;99943.13;;;16.07;79.65
81913;BME280;71377;50.698;7.164;2023-08-06T10:09:14;99952.53;;;16.11;79.99
81913;BME280;71377;50.698;7.164;2023-08-06T10:11:42;99942.03;;;15.97;80.13
81913;BME280;71377;50.698;7.164;2023-08-06T10:16:44;99961.13;;;16.02;79.97
81913;BME280;71377;50.698;7.164;2023-08-06T10:19:12;99978.47;;;16.06;79.38
81913;BME280;71377;50.698;7.164;2023-08-06T10:21:39;99969.59;;;15.95;79.84
81913;BME280;71377;50.698;7.164;2023-08-06T10:24:08;99979.34;;;15.94;79.66
81913;BME280;71377;50.698;7.164;2023-08-06T10:26:37;99985.25;;;15.85;79.97
81913;BME280;71377;50.698;7.164;2023-08-06T10:29:34;99996.44;;;15.63;79.04
81913;BME280;71377;50.698;7.164;2023-08-06T10:32:01;100007.22;;;15.33;79.56
81913;BME280;71377;50.698;7.164;2023-08-06T10:34:53;100017.16;;;15.30;78.94
81913;BME280;71377;50.698;7.164;2023-08-06T10:37:20;100026.34;;;15.24;77.89
81913;BME280;71377;50.698;7.164;2023-08-06T10:39:49;100019.00;;;15.15;78.01
81913;BME280;71377;50.698;7.164;2023-08-06T10:42:27;100026.59;;;14.92;77.46
81913;BME280;71377;50.698;7.164;2023-08-06T10:47:40;100035.41;;;14.79;78.04
81913;BME280;71377;50.698;7.164;2023-08-06T10:50:16;100044.34;;;14.76;77.23
81913;BME280;71377;50.698;7.164;2023-08-06T10:52:44;100051.91;;;14.54;77.22
81913;BME280;71377;50.698;7.164;2023-08-06T10:55:11;100059.19;;;14.64;77.92
81913;BME280;71377;50.698;7.164;2023-08-06T10:57:38;100048.25;;;14.70;77.85
81913;BME280;71377;50.698;7.164;2023-08-06T11:00:06;100064.00;;;14.58;78.04
81913;BME280;71377;50.698;7.164;2023-08-06T11:02:42;100057.75;;;14.59;77.92
81913;BME280;71377;50.698;7.164;2023-08-06T11:05:10;100074.31;;;14.62;78.84
81913;BME280;71377;50.698;7.164;2023-08-06T11:07:37;100074.09;;;14.65;78.27
81913;BME280;71377;50.698;7.164;2023-08-06T11:10:06;100068.53;;;14.70;79.06
81913;BME280;71377;50.698;7.164;2023-08-06T11:12:33;100091.09;;;14.61;79.21
81913;BME280;71377;50.698;7.164;2023-08-06T11:15:00;100082.78;;;14.53;79.41
81913;BME280;71377;50.698;7.164;2023-08-06T11:17:28;100083.63;;;14.54;79.37
81913;BME280;71377;50.698;7.164;2023-08-06T11:19:55;100087.22;;;14.53;80.11
81913;BME280;71377;50.698;7.164;2023-08-06T11:22:22;100093.47;;;14.52;79.19
81913;BME280;71377;50.698;7.164;2023-08-06T11:24:49;100088.00;;;14.39;78.55
81913;BME280;71377;50.698;7.164;2023-08-06T11:27:16;100093.81;;;14.46;78.60
81913;BME280;71377;50.698;7.164;2023-08-06T11:29:44;100095.31;;;14.50;78.34
81913;BME280;71377;50.698;7.164;2023-08-06T11:32:10;100101.75;;;14.46;78.72
81913;BME280;71377;50.698;7.164;2023-08-06T11:34:39;100112.25;;;14.61;79.26
81913;BME280;71377;50.698;7.164;2023-08-06T11:37:07;100108.81;;;14.59;79.38
81913;BME280;71377;50.698;7.164;2023-08-06T11:39:34;100113.25;;;14.59;78.86
81913;BME280;71377;50.698;7.164;2023-08-06T11:42:03;100118.75;;;14.56;78.65
81913;BME280;71377;50.698;7.164;2023-08-06T11:44:31;100121.88;;;14.62;78.44
81913;BME280;71377;50.698;7.164;2023-08-06T11:47:02;100128.41;;;14.71;78.76
81913;BME280;71377;50.698;7.164;2023-08-06T11:49:42;100122.75;;;14.77;79.47
81913;BME280;71377;50.698;7.164;2023-08-06T11:52:17;100125.94;;;14.82;79.72
81913;BME280;71377;50.698;7.164;2023-08-06T11:55:05;100138.41;;;14.80;78.95
81913;BME280;71377;50.698;7.164;2023-08-06T11:57:37;100138.81;;;14.88;78.99
81913;BME280;71377;50.698;7.164;2023-08-06T12:00:09;100140.47;;;14.75;79.72
81913;BME280;71377;50.698;7.164;2023-08-06T12:02:35;100148.63;;;14.86;79.74
81913;BME280;71377;50.698;7.164;2023-08-06T12:05:11;100146.25;;;14.82;79.09
81913;BME280;71377;50.698;7.164;2023-08-06T12:07:48;100156.94;;;14.94;78.87
81913;BME280;71377;50.698;7.164;2023-08-06T12:10:16;100151.19;;;14.88;79.23
81913;BME280;71377;50.698;7.164;2023-08-06T12:12:43;100153.06;;;14.86;79.12
81913;BME280;71377;50.698;7.164;2023-08-06T12:15:10;100163.34;;;14.90;79.39
81913;BME280;71377;50.698;7.164;2023-08-06T12:17:36;100152.50;;;14.95;78.25
81913;BME280;71377;50.698;7.164;2023-08-06T12:20:05;100166.13;;;15.03;78.58
81913;BME280;71377;50.698;7.164;2023-08-06T12:22:35;100166.75;;;15.07;78.71
81913;BME280;71377;50.698;7.164;2023-08-06T12:25:03;100173.94;;;15.05;79.64
81913;BME280;71377;50.698;7.164;2023-08-06T12:27:30;100178.41;;;15.04;78.76
81913;BME280;71377;50.698;7.164;2023-08-06T12:29:56;100172.63;;;14.97;77.92
81913;BME280;71377;50.698;7.164;2023-08-06T12:32:22;100174.22;;;15.00;78.47
81913;BME280;71377;50.698;7.164;2023-08-06T12:34:49;100171.69;;;15.13;78.56
81913;BME280;71377;50.698;7.164;2023-08-06T12:37:19;100174.72;;;15.21;79.58
81913;BME280;71377;50.698;7.164;2023-08-06T12:39:46;100176.22;;;15.25;79.54
81913;BME280;71377;50.698;7.164;2023-08-06T12:42:12;100178.22;;;15.21;79.07
81913;BME280;71377;50.698;7.164;2023-08-06T12:44:39;100177.44;;;15.34;78.38
81913;BME280;71377;50.698;7.164;2023-08-06T12:47:07;100174.03;;;15.32;79.45
81913;BME280;71377;50.698;7.164;2023-08-06T12:49:34;100178.47;;;15.31;79.70
81913;BME280;71377;50.698;7.164;2023-08-06T12:52:00;100177.34;;;15.35;79.84
81913;BME280;71377;50.698;7.164;2023-08-06T12:54:28;100188.28;;;15.43;78.89
81913;BME280;71377;50.698;7.164;2023-08-06T12:56:55;100190.00;;;15.44;79.18
81913;BME280;71377;50.698;7.164;2023-08-06T12:59:22;100188.88;;;15.48;79.63
81913;BME280;71377;50.698;7.164;2023-08-06T13:01:48;100186.50;;;15.44;79.41
81913;BME280;71377;50.698;7.164;2023-08-06T13:04:15;100186.47;;;15.58;79.38
81913;BME280;71377;50.698;7.164;2023-08-06T13:06:48;100187.91;;;15.35;78.32
81913;BME280;71377;50.698;7.164;2023-08-06T13:09:15;100195.97;;;15.48;78.91
81913;BME280;71377;50.698;7.164;2023-08-06T13:11:42;100195.47;;;15.27;77.84
81913;BME280;71377;50.698;7.164;2023-08-06T13:14:10;100199.81;;;15.42;78.96
81913;BME280;71377;50.698;7.164;2023-08-06T13:16:41;100209.94;;;15.50;79.13